^^
Your Local Weather - Clay, NY Station Historical Data
Daily Summary for January 24, 2017 Units:  Metric    English   Both
« Previous Day
Next Day »
Daily Weekly Monthly Yearly Custom
  High: Low: Average:
Temperature: 0.6 °C -1.7 °C -0.7 °C
Dew Point: -0.7 °C -3.2 °C -1.9 °C
Humidity: 94% 89% 92%
Wind Speed: 6.4km/h 0km/h 3.4km/h
Wind Gust: 11.3km/h - -
Wind- - WNW
Pressure: 1005.6 hPa 999.5 hPa -
Precipitation: 9.65 mm    
Historical Graphs
 
 
Tabular Data for January 24, 2017
Time Temperature Dew Point Pressure Wind Wind Speed Wind Gust Humidity Rainfall Rate (Hourly) solar
00:02 -0.1 °C -1.7 °C 1005.6 hPa NE 4.8 km/h 6.4 km/h 89% 0 mm 0 W/m2
00:08 -0.1 °C -1.7 °C 1005.6 hPa NE 3.2 km/h 9.7 km/h 89% 0 mm 0 W/m2
00:14 -0.1 °C -1.7 °C 1005.3 hPa NNE 3.2 km/h 4.8 km/h 89% 0 mm 0 W/m2
00:20 -0.1 °C -1.7 °C 1005.3 hPa NNE 3.2 km/h 4.8 km/h 89% 0 mm 0 W/m2
00:26 0 °C -1.6 °C 1005.3 hPa North 1.6 km/h 4.8 km/h 89% 0 mm 0 W/m2
00:32 0 °C -1.4 °C 1005 hPa NNE 3.2 km/h 3.2 km/h 90% 0 mm 0 W/m2
00:38 0 °C -1.4 °C 1005 hPa NE 3.2 km/h 3.2 km/h 90% 1.27 mm 0 W/m2
00:44 0 °C -1.4 °C 1005 hPa NNW 3.2 km/h 4.8 km/h 90% 1.27 mm 0 W/m2
00:50 0 °C -1.4 °C 1004.6 hPa North 3.2 km/h 4.8 km/h 90% 1.27 mm 0 W/m2
00:56 0 °C -1.4 °C 1004.6 hPa NNW 3.2 km/h 4.8 km/h 90% 0 mm 0 W/m2
01:02 0 °C -1.3 °C 1004.6 hPa North 3.2 km/h 3.2 km/h 91% 0 mm 0 W/m2
01:08 0 °C -1.3 °C 1004.6 hPa North 3.2 km/h 3.2 km/h 91% 0 mm 0 W/m2
01:14 0 °C -1.3 °C 1004.3 hPa North 1.6 km/h 3.2 km/h 91% 3.56 mm 0 W/m2
01:20 0 °C -1.3 °C 1004.3 hPa NE 1.6 km/h 1.6 km/h 91% 2.03 mm 0 W/m2
01:26 0 °C -1.3 °C 1004.3 hPa North 1.6 km/h 4.8 km/h 91% 2.03 mm 0 W/m2
01:32 0 °C -1.3 °C 1004.3 hPa North 1.6 km/h 4.8 km/h 91% 2.54 mm 0 W/m2
01:38 0 °C -1.3 °C 1004.3 hPa North 3.2 km/h 4.8 km/h 91% 2.03 mm 0 W/m2
01:44 0 °C -1.3 °C 1003.9 hPa North 3.2 km/h 3.2 km/h 91% 2.79 mm 0 W/m2
01:50 0 °C -1.2 °C 1003.9 hPa North 3.2 km/h 3.2 km/h 92% 2.29 mm 0 W/m2
01:56 0.1 °C -1.1 °C 1003.9 hPa North 1.6 km/h 3.2 km/h 92% 1.78 mm 0 W/m2
02:02 0.1 °C -1.1 °C 1003.9 hPa NNW 3.2 km/h 3.2 km/h 92% 1.78 mm 0 W/m2
02:08 0 °C -1.2 °C 1003.6 hPa NNW 3.2 km/h 4.8 km/h 92% 1.52 mm 0 W/m2
02:14 0.1 °C -1.1 °C 1003.6 hPa NNW 4.8 km/h 4.8 km/h 92% 1.78 mm 0 W/m2
02:20 0.1 °C -1.1 °C 1003.6 hPa NNW 3.2 km/h 3.2 km/h 92% 1.78 mm 0 W/m2
02:26 0 °C -1.2 °C 1003.6 hPa NNW 3.2 km/h 4.8 km/h 92% 1.52 mm 0 W/m2
02:32 0 °C -1.2 °C 1003.3 hPa NNW 3.2 km/h 3.2 km/h 92% 2.03 mm 0 W/m2
02:38 0 °C -1.2 °C 1003.3 hPa NNW 3.2 km/h 3.2 km/h 92% 2.03 mm 0 W/m2
02:44 0 °C -1.2 °C 1003.3 hPa NW 3.2 km/h 6.4 km/h 92% 1.27 mm 0 W/m2
02:50 -0.1 °C -1.2 °C 1003.3 hPa NNE 3.2 km/h 3.2 km/h 92% 2.54 mm 0 W/m2
02:56 -0.1 °C -1.2 °C 1003.3 hPa NNW 3.2 km/h 4.8 km/h 92% 2.03 mm 0 W/m2
03:02 -0.1 °C -1.2 °C 1003.3 hPa NW 3.2 km/h 3.2 km/h 92% 1.78 mm 0 W/m2
03:08 -0.1 °C -1.3 °C 1003.3 hPa NW 1.6 km/h 3.2 km/h 92% 2.03 mm 0 W/m2
03:14 -0.1 °C -1.3 °C 1003.3 hPa NNW 1.6 km/h 3.2 km/h 92% 1.52 mm 0 W/m2
03:20 -0.1 °C -1.1 °C 1002.9 hPa NNW 3.2 km/h 4.8 km/h 93% 1.52 mm 0 W/m2
03:26 -0.2 °C -1.2 °C 1002.9 hPa WNW 3.2 km/h 6.4 km/h 93% 2.29 mm 0 W/m2
03:32 -0.2 °C -1.2 °C 1002.9 hPa NNW 3.2 km/h 4.8 km/h 93% 3.05 mm 0 W/m2
03:38 -0.2 °C -1.3 °C 1002.9 hPa NNW 4.8 km/h 4.8 km/h 92% 2.29 mm 0 W/m2
03:44 -0.2 °C -1.3 °C 1002.9 hPa NNW 3.2 km/h 8 km/h 92% 1.52 mm 0 W/m2
03:50 -0.2 °C -1.3 °C 1002.9 hPa NNW 4.8 km/h 4.8 km/h 92% 2.54 mm 0 W/m2
03:56 -0.2 °C -1.2 °C 1002.9 hPa NW 3.2 km/h 4.8 km/h 93% 2.03 mm 0 W/m2
04:02 -0.2 °C -1.2 °C 1002.6 hPa NW 3.2 km/h 9.7 km/h 93% 1.78 mm 0 W/m2
04:08 -0.2 °C -1.2 °C 1002.6 hPa NW 4.8 km/h 9.7 km/h 93% 2.03 mm 0 W/m2
04:14 -0.2 °C -1.2 °C 1002.6 hPa NNW 3.2 km/h 6.4 km/h 93% 1.52 mm 0 W/m2
04:20 -0.3 °C -1.3 °C 1002.6 hPa North 4.8 km/h 4.8 km/h 93% 1.02 mm 0 W/m2
04:26 -0.3 °C -1.3 °C 1002.6 hPa NNW 4.8 km/h 6.4 km/h 93% 0 mm 0 W/m2
04:32 -0.3 °C -1.3 °C 1002.6 hPa WNW 4.8 km/h 6.4 km/h 93% 0 mm 0 W/m2
04:38 -0.3 °C -1.3 °C 1002.6 hPa NW 4.8 km/h 6.4 km/h 93% 0 mm 0 W/m2
04:44 -0.3 °C -1.3 °C 1002.6 hPa NNW 4.8 km/h 6.4 km/h 93% 0 mm 0 W/m2
04:50 -0.3 °C -1.3 °C 1002.3 hPa NW 4.8 km/h 4.8 km/h 93% 0 mm 0 W/m2
04:56 -0.3 °C -1.3 °C 1002.3 hPa North 4.8 km/h 6.4 km/h 93% 0 mm 0 W/m2
05:02 -0.3 °C -1.3 °C 1002.6 hPa NW 4.8 km/h 6.4 km/h 93% 0 mm 0 W/m2
05:08 -0.4 °C -1.4 °C 1002.6 hPa NNW 4.8 km/h 6.4 km/h 93% 0 mm 0 W/m2
05:14 -0.4 °C -1.4 °C 1002.6 hPa NNW 3.2 km/h 9.7 km/h 93% 0 mm 0 W/m2
05:20 -0.4 °C -1.4 °C 1002.3 hPa NNW 3.2 km/h 6.4 km/h 93% 0 mm 0 W/m2
05:26 -0.4 °C -1.4 °C 1002.3 hPa North 4.8 km/h 6.4 km/h 93% 0 mm 0 W/m2
05:32 -0.5 °C -1.7 °C 1002.6 hPa North 4.8 km/h 4.8 km/h 92% 0 mm 0 W/m2
05:38 -0.5 °C -1.5 °C 1002.3 hPa NW 3.2 km/h 8 km/h 93% 0 mm 0 W/m2
05:44 -0.6 °C -1.6 °C 1002.3 hPa NNW 3.2 km/h 6.4 km/h 93% 0 mm 0 W/m2
05:50 -0.6 °C -1.6 °C 1002.3 hPa NNW 3.2 km/h 3.2 km/h 93% 0 mm 0 W/m2
05:56 -0.6 °C -1.6 °C 1002.3 hPa NW 3.2 km/h 3.2 km/h 93% 0 mm 0 W/m2
06:02 -0.6 °C -1.6 °C 1002.3 hPa NNW 4.8 km/h 6.4 km/h 93% 0 mm 0 W/m2
06:08 -0.6 °C -1.6 °C 1002.3 hPa North 3.2 km/h 6.4 km/h 93% 0 mm 0 W/m2
06:14 -0.6 °C -1.6 °C 1002.3 hPa NW 3.2 km/h 8 km/h 93% 0 mm 0 W/m2
06:20 -0.6 °C -1.6 °C 1002.3 hPa NW 3.2 km/h 3.2 km/h 93% 0 mm 0 W/m2
06:26 -0.6 °C -1.6 °C 1002.3 hPa NNW 3.2 km/h 3.2 km/h 93% 0 mm 0 W/m2
06:32 -0.7 °C -1.7 °C 1002.3 hPa NNW 3.2 km/h 6.4 km/h 93% 0 mm 0 W/m2
06:38 -0.7 °C -1.7 °C 1002.3 hPa NNW 4.8 km/h 6.4 km/h 93% 0 mm 0 W/m2
06:44 -0.7 °C -1.7 °C 1002.3 hPa NNW 4.8 km/h 6.4 km/h 93% 0 mm 0 W/m2
06:50 -0.7 °C -1.7 °C 1002.3 hPa NW 3.2 km/h 3.2 km/h 93% 0 mm 0 W/m2
06:56 -0.7 °C -1.7 °C 1002.3 hPa NW 4.8 km/h 9.7 km/h 93% 0 mm 0 W/m2
07:02 -0.7 °C -1.7 °C 1002.3 hPa NNW 4.8 km/h 4.8 km/h 93% 0 mm 0 W/m2
07:08 -0.7 °C -1.7 °C 1002.3 hPa NNW 3.2 km/h 4.8 km/h 93% 0 mm 0 W/m2
07:14 -0.7 °C -1.7 °C 1002.3 hPa North 4.8 km/h 4.8 km/h 93% 0 mm 0 W/m2
07:20 -0.7 °C -1.7 °C 1002.3 hPa NNW 4.8 km/h 4.8 km/h 93% 0 mm 0 W/m2
07:26 -0.8 °C -1.8 °C 1001.9 hPa NW 3.2 km/h 6.4 km/h 93% 0 mm 0 W/m2
07:32 -0.8 °C -1.8 °C 1001.9 hPa NW 4.8 km/h 8 km/h 93% 0 mm 0 W/m2
07:38 -0.8 °C -1.6 °C 1001.9 hPa NNW 4.8 km/h 8 km/h 94% 0 mm 0 W/m2
07:44 -0.8 °C -1.6 °C 1001.9 hPa NNW 4.8 km/h 8 km/h 94% 0 mm 0 W/m2
07:50 -0.8 °C -1.8 °C 1001.9 hPa NNW 4.8 km/h 4.8 km/h 93% 0 mm 0 W/m2
07:56 -0.8 °C -1.6 °C 1001.6 hPa NW 4.8 km/h 4.8 km/h 94% 0 mm 5 W/m2
08:02 -0.8 °C -1.6 °C 1001.9 hPa North 4.8 km/h 6.4 km/h 94% 0 mm 7 W/m2
08:08 -0.8 °C -1.6 °C 1001.6 hPa NNW 4.8 km/h 6.4 km/h 94% 0 mm 7 W/m2
08:14 -0.8 °C -1.6 °C 1001.6 hPa NNW 3.2 km/h 4.8 km/h 94% 0 mm 11 W/m2
08:20 -0.7 °C -1.6 °C 1001.6 hPa NW 3.2 km/h 3.2 km/h 94% 0 mm 14 W/m2
08:26 -0.7 °C -1.6 °C 1001.6 hPa North 4.8 km/h 6.4 km/h 94% 0 mm 16 W/m2
08:32 -0.7 °C -1.6 °C 1001.6 hPa NW 4.8 km/h 4.8 km/h 94% 0 mm 23 W/m2
08:38 -0.7 °C -1.6 °C 1001.9 hPa West 4.8 km/h 4.8 km/h 94% 0 mm 25 W/m2
08:46 -0.7 °C -1.5 °C 1001.9 hPa North 4.8 km/h 6.4 km/h 94% 0 mm 25 W/m2
08:52 -0.7 °C -1.5 °C 1001.6 hPa NNW 4.8 km/h 8 km/h 94% 0 mm 21 W/m2
08:58 -0.7 °C -1.7 °C 1001.6 hPa NW 4.8 km/h 4.8 km/h 93% 0 mm 25 W/m2
09:06 -0.7 °C -1.7 °C 1001.6 hPa NNW 4.8 km/h 8 km/h 93% 0 mm 25 W/m2
09:12 -0.7 °C -1.7 °C 1001.6 hPa North 3.2 km/h 4.8 km/h 93% 0 mm 21 W/m2
09:18 -0.6 °C -1.6 °C 1001.6 hPa NNW 3.2 km/h 4.8 km/h 93% 0 mm 25 W/m2
09:24 -0.6 °C -1.6 °C 1001.6 hPa NNW 3.2 km/h 8 km/h 93% 0 mm 26 W/m2
09:30 -0.7 °C -1.7 °C 1001.6 hPa NW 4.8 km/h 4.8 km/h 93% 0 mm 32 W/m2
09:36 -0.7 °C -1.7 °C 1001.6 hPa WNW 6.4 km/h 6.4 km/h 93% 0 mm 30 W/m2
09:42 -0.6 °C -1.6 °C 1001.9 hPa NNW 4.8 km/h 4.8 km/h 93% 0 mm 32 W/m2
09:48 -0.7 °C -1.7 °C 1001.6 hPa NNW 4.8 km/h 8 km/h 93% 0 mm 37 W/m2
09:54 -0.6 °C -1.6 °C 1001.6 hPa NNW 4.8 km/h 8 km/h 93% 0 mm 37 W/m2
10:00 -0.7 °C -1.7 °C 1001.9 hPa NW 4.8 km/h 6.4 km/h 93% 0 mm 39 W/m2
10:06 -0.6 °C -1.6 °C 1001.9 hPa NW 4.8 km/h 6.4 km/h 93% 0 mm 40 W/m2
10:12 -0.6 °C -1.6 °C 1001.9 hPa NNW 3.2 km/h 4.8 km/h 93% 0 mm 37 W/m2
10:18 -0.6 °C -1.6 °C 1001.9 hPa NW 4.8 km/h 8 km/h 93% 0 mm 35 W/m2
10:24 -0.7 °C -1.7 °C 1001.6 hPa WNW 4.8 km/h 8 km/h 93% 0 mm 35 W/m2
10:30 -0.7 °C -1.7 °C 1001.9 hPa NW 4.8 km/h 11.3 km/h 93% 0 mm 33 W/m2
10:36 -0.7 °C -1.7 °C 1001.9 hPa NNW 6.4 km/h 11.3 km/h 93% 0 mm 28 W/m2
10:42 -0.7 °C -1.7 °C 1001.9 hPa NW 4.8 km/h 4.8 km/h 93% 0 mm 25 W/m2
10:48 -0.7 °C -1.7 °C 1001.6 hPa NW 3.2 km/h 4.8 km/h 93% 0 mm 25 W/m2
10:54 -0.6 °C -1.6 °C 1001.6 hPa NW 3.2 km/h 4.8 km/h 93% 0 mm 30 W/m2
11:00 -0.6 °C -1.6 °C 1001.6 hPa NW 3.2 km/h 3.2 km/h 93% 0 mm 40 W/m2
11:06 -0.5 °C -1.5 °C 1001.6 hPa NW 1.6 km/h 3.2 km/h 93% 0 mm 37 W/m2
11:12 -0.4 °C -1.4 °C 1001.6 hPa Calm     93% 0 mm 44 W/m2
11:18 -0.4 °C -1.4 °C 1001.2 hPa Calm     93% 0 mm 46 W/m2
11:24 -0.4 °C -1.4 °C 1001.2 hPa Calm     93% 0 mm 46 W/m2
11:30 -0.4 °C -1.4 °C 1001.2 hPa Calm     93% 0 mm 44 W/m2
11:36 -0.3 °C -1.3 °C 1001.2 hPa Calm     93% 0 mm 51 W/m2
11:42 -0.4 °C -1.4 °C 1000.9 hPa Calm     93% 0 mm 54 W/m2
11:48 -0.3 °C -1.3 °C 1000.9 hPa Calm     93% 0 mm 56 W/m2
11:53 -0.2 °C -1.2 °C 1000.9 hPa Calm     93% 0 mm 65 W/m2
12:00 -0.2 °C -1.4 °C 1000.9 hPa Calm     92% 0 mm 72 W/m2
12:06 -0.1 °C -1.1 °C 1000.9 hPa Calm     93% 0 mm 86 W/m2
12:12 -0.1 °C -1.2 °C 1000.6 hPa Calm   3.2 km/h 92% 0 mm 104 W/m2
12:18 0 °C -1.2 °C 1000.6 hPa NNW 3.2 km/h 4.8 km/h 92% 0 mm 114 W/m2
12:24 0.2 °C -1 °C 1000.6 hPa NNW 3.2 km/h 3.2 km/h 92% 0 mm 127 W/m2
12:30 0.3 °C -0.8 °C 1000.2 hPa NNW 1.6 km/h 1.6 km/h 92% 0 mm 137 W/m2
12:36 0.4 °C -0.8 °C 1000.2 hPa NNW 1.6 km/h 3.2 km/h 92% 1.27 mm 156 W/m2
12:42 0.5 °C -0.7 °C 1000.2 hPa NNW 1.6 km/h 4.8 km/h 92% 1.27 mm 179 W/m2
12:48 0.6 °C -0.7 °C 999.9 hPa NNW 1.6 km/h 4.8 km/h 91% 1.02 mm 202 W/m2
12:54 0.6 °C -0.7 °C 999.5 hPa WNW 1.6 km/h 4.8 km/h 91% 1.02 mm 179 W/m2
13:00 0.4 °C -0.8 °C 999.5 hPa WNW 3.2 km/h 3.2 km/h 91% 1.52 mm 171 W/m2
13:06 0.4 °C -0.9 °C 999.5 hPa WNW 3.2 km/h 8 km/h 91% 1.52 mm 120 W/m2
13:12 0.3 °C -1 °C 999.5 hPa WNW 3.2 km/h 4.8 km/h 91% 1.52 mm 100 W/m2
13:18 0.2 °C -1.1 °C 999.5 hPa WNW 1.6 km/h 4.8 km/h 91% 1.27 mm 90 W/m2
13:26 0.1 °C -1.2 °C 999.5 hPa WNW 1.6 km/h 3.2 km/h 91% 1.27 mm 97 W/m2
13:32 0.1 °C -1.2 °C 999.5 hPa WNW 3.2 km/h 3.2 km/h 91% 1.02 mm 98 W/m2
13:38 0.1 °C -1.2 °C 999.5 hPa WNW 3.2 km/h 3.2 km/h 91% 0 mm 86 W/m2
13:46 0.1 °C -1.2 °C 999.5 hPa WNW 1.6 km/h 3.2 km/h 91% 0 mm 77 W/m2
13:52 0 °C -1.3 °C 999.5 hPa WNW 3.2 km/h 4.8 km/h 91% 0 mm 77 W/m2
13:58 -0.1 °C -1.3 °C 999.5 hPa WNW 3.2 km/h 4.8 km/h 91% 0 mm 81 W/m2
14:04 -0.1 °C -1.2 °C 999.5 hPa WNW 1.6 km/h 3.2 km/h 92% 0 mm 79 W/m2
14:10 -0.1 °C -1.2 °C 999.5 hPa WNW 3.2 km/h 3.2 km/h 92% 0 mm 72 W/m2
14:16 0 °C -1.2 °C 999.5 hPa WNW 1.6 km/h 3.2 km/h 92% 0 mm 67 W/m2
14:22 -0.1 °C -1.2 °C 999.9 hPa WSW 1.6 km/h 6.4 km/h 92% 0 mm 63 W/m2
14:28 -0.1 °C -1.3 °C 999.9 hPa WSW 3.2 km/h 6.4 km/h 92% 0 mm 67 W/m2
14:36 -0.1 °C -1.3 °C 999.9 hPa WSW 1.6 km/h 3.2 km/h 92% 0 mm 56 W/m2
14:42 -0.1 °C -1.3 °C 999.9 hPa WNW 3.2 km/h 3.2 km/h 92% 0 mm 56 W/m2
14:48 -0.1 °C -1.3 °C 1000.2 hPa WNW 4.8 km/h 4.8 km/h 92% 0 mm 53 W/m2
14:54 -0.2 °C -1.4 °C 1000.2 hPa West 4.8 km/h 4.8 km/h 91% 0 mm 44 W/m2
15:00 -0.1 °C -1.3 °C 1000.2 hPa West 3.2 km/h 3.2 km/h 92% 0 mm 49 W/m2
15:06 -0.2 °C -1.3 °C 1000.2 hPa WNW 3.2 km/h 4.8 km/h 92% 0 mm 44 W/m2
15:12 -0.2 °C -1.4 °C 1000.2 hPa NW 3.2 km/h 6.4 km/h 92% 0 mm 47 W/m2
16:26 -0.7 °C -1.9 °C 1000.6 hPa NW 4.8 km/h 6.4 km/h 91% 0 mm 7 W/m2
16:32 -0.7 °C -1.9 °C 1000.9 hPa WNW 4.8 km/h 6.4 km/h 91% 0 mm 5 W/m2
16:38 -0.7 °C -1.8 °C 1000.9 hPa NW 3.2 km/h 4.8 km/h 92% 0 mm 5 W/m2
16:43 -0.8 °C -1.9 °C 1001.2 hPa NW 3.2 km/h 6.4 km/h 92% 0 mm 7 W/m2
16:50 -0.9 °C -2.2 °C 1001.2 hPa NW 3.2 km/h 8 km/h 91% 0 mm 9 W/m2
16:55 -1 °C -2.3 °C 1001.2 hPa WNW 4.8 km/h 4.8 km/h 91% 0 mm 11 W/m2
17:02 -1.1 °C -2.4 °C 1001.2 hPa NNW 6.4 km/h 6.4 km/h 91% 0 mm 0 W/m2
17:08 -1.1 °C -2.6 °C 1001.2 hPa WNW 6.4 km/h 6.4 km/h 90% 0 mm 0 W/m2
17:14 -1.1 °C -2.6 °C 1001.6 hPa NW 4.8 km/h 6.4 km/h 90% 0 mm 0 W/m2
17:19 -1.1 °C -2.6 °C 1001.9 hPa WNW 3.2 km/h 3.2 km/h 90% 0 mm 0 W/m2
17:26 -1.2 °C -2.6 °C 1001.9 hPa NNW 3.2 km/h 11.3 km/h 90% 0 mm 0 W/m2
17:32 -1.2 °C -2.6 °C 1001.9 hPa NW 4.8 km/h 4.8 km/h 90% 0 mm 0 W/m2
17:38 -1.2 °C -2.6 °C 1001.9 hPa NW 4.8 km/h 6.4 km/h 90% 0 mm 0 W/m2
17:43 -1.2 °C -2.7 °C 1001.9 hPa WNW 4.8 km/h 4.8 km/h 90% 0 mm 0 W/m2
17:50 -1.2 °C -2.7 °C 1001.9 hPa NW 4.8 km/h 4.8 km/h 90% 0 mm 0 W/m2
17:56 -1.2 °C -2.7 °C 1001.9 hPa WNW 4.8 km/h 11.3 km/h 90% 0 mm 0 W/m2
18:02 -1.2 °C -2.7 °C 1001.9 hPa WNW 4.8 km/h 8 km/h 90% 0 mm 0 W/m2
18:08 -1.3 °C -2.7 °C 1001.9 hPa NW 4.8 km/h 8 km/h 90% 0 mm 0 W/m2
18:14 -1.3 °C -2.7 °C 1001.6 hPa West 4.8 km/h 6.4 km/h 90% 0 mm 0 W/m2
18:19 -1.3 °C -2.7 °C 1001.6 hPa WNW 4.8 km/h 4.8 km/h 90% 0 mm 0 W/m2
18:26 -1.3 °C -2.8 °C 1001.6 hPa WNW 4.8 km/h 9.7 km/h 90% 0 mm 0 W/m2
18:32 -1.3 °C -2.8 °C 1001.6 hPa NW 4.8 km/h 11.3 km/h 90% 0 mm 0 W/m2
18:38 -1.4 °C -2.8 °C 1001.9 hPa NW 4.8 km/h 11.3 km/h 90% 0 mm 0 W/m2
18:43 -1.4 °C -2.8 °C 1001.9 hPa NW 3.2 km/h 8 km/h 90% 0 mm 0 W/m2
18:49 -1.4 °C -2.9 °C 1001.9 hPa West 4.8 km/h 4.8 km/h 90% 0 mm 0 W/m2
18:56 -1.4 °C -2.7 °C 1002.3 hPa WNW 3.2 km/h 4.8 km/h 91% 0 mm 0 W/m2
19:02 -1.4 °C -2.7 °C 1002.3 hPa NNW 3.2 km/h 6.4 km/h 91% 0 mm 0 W/m2
19:08 -1.4 °C -2.7 °C 1002.3 hPa NW 3.2 km/h 6.4 km/h 91% 0 mm 0 W/m2
19:14 -1.4 °C -2.7 °C 1002.3 hPa WNW 3.2 km/h 4.8 km/h 91% 0 mm 0 W/m2
19:20 -1.4 °C -2.7 °C 1002.3 hPa WNW 3.2 km/h 6.4 km/h 91% 0 mm 0 W/m2
19:25 -1.4 °C -2.7 °C 1002.3 hPa NW 4.8 km/h 9.7 km/h 91% 0 mm 0 W/m2
19:32 -1.5 °C -2.9 °C 1002.3 hPa WNW 4.8 km/h 11.3 km/h 90% 0 mm 0 W/m2
19:38 -1.5 °C -2.9 °C 1002.3 hPa WNW 4.8 km/h 11.3 km/h 90% 0 mm 0 W/m2
19:44 -1.5 °C -2.9 °C 1002.3 hPa NW 4.8 km/h 8 km/h 90% 0 mm 0 W/m2
19:49 -1.5 °C -2.9 °C 1002.3 hPa NW 3.2 km/h 3.2 km/h 90% 0 mm 0 W/m2
19:56 -1.5 °C -2.9 °C 1002.3 hPa WNW 3.2 km/h 3.2 km/h 90% 0 mm 0 W/m2
20:02 -1.5 °C -2.9 °C 1002.3 hPa WNW 4.8 km/h 4.8 km/h 90% 0 mm 0 W/m2
20:08 -1.5 °C -2.9 °C 1002.3 hPa WNW 3.2 km/h 4.8 km/h 90% 0 mm 0 W/m2
20:14 -1.6 °C -3 °C 1002.3 hPa WNW 3.2 km/h 4.8 km/h 90% 0 mm 0 W/m2
20:19 -1.6 °C -3 °C 1002.3 hPa WNW 3.2 km/h 4.8 km/h 90% 0 mm 0 W/m2
20:26 -1.6 °C -3 °C 1002.3 hPa NW 3.2 km/h 4.8 km/h 90% 0 mm 0 W/m2
20:32 -1.6 °C -3 °C 1002.3 hPa NW 4.8 km/h 4.8 km/h 90% 0 mm 0 W/m2
20:38 -1.6 °C -3 °C 1002.6 hPa NW 3.2 km/h 4.8 km/h 90% 0 mm 0 W/m2
20:44 -1.6 °C -2.8 °C 1002.6 hPa NW 3.2 km/h 9.7 km/h 91% 0 mm 0 W/m2
20:49 -1.6 °C -3 °C 1002.6 hPa NW 3.2 km/h 3.2 km/h 90% 0 mm 0 W/m2
20:55 -1.6 °C -2.8 °C 1002.9 hPa NW 1.6 km/h 3.2 km/h 91% 0 mm 0 W/m2
21:02 -1.6 °C -3 °C 1002.6 hPa NW 1.6 km/h 4.8 km/h 90% 0 mm 0 W/m2
21:08 -1.6 °C -3 °C 1002.9 hPa NW 3.2 km/h 4.8 km/h 90% 0 mm 0 W/m2
21:13 -1.5 °C -2.9 °C 1002.9 hPa NW 1.6 km/h 4.8 km/h 90% 0 mm 0 W/m2
21:19 -1.5 °C -2.9 °C 1002.9 hPa West 1.6 km/h 1.6 km/h 90% 0 mm 0 W/m2
21:26 -1.4 °C -2.9 °C 1002.9 hPa SSW 1.6 km/h 3.2 km/h 90% 0 mm 0 W/m2
21:32 -1.5 °C -2.9 °C 1002.9 hPa SW 1.6 km/h 3.2 km/h 90% 0 mm 0 W/m2
21:38 -1.5 °C -2.9 °C 1002.9 hPa SW 3.2 km/h 3.2 km/h 90% 0 mm 0 W/m2
21:44 -1.6 °C -3 °C 1002.9 hPa WSW 3.2 km/h 4.8 km/h 90% 0 mm 0 W/m2
21:49 -1.6 °C -3 °C 1002.9 hPa WNW 3.2 km/h 3.2 km/h 90% 0 mm 0 W/m2
21:56 -1.6 °C -3 °C 1002.9 hPa WNW 1.6 km/h 4.8 km/h 90% 0 mm 0 W/m2
22:02 -1.6 °C -3 °C 1002.9 hPa West 3.2 km/h 3.2 km/h 90% 0 mm 0 W/m2
22:08 -1.6 °C -3 °C 1002.9 hPa West 3.2 km/h 3.2 km/h 90% 0 mm 0 W/m2
22:14 -1.6 °C -3 °C 1002.9 hPa West 3.2 km/h 6.4 km/h 90% 0 mm 0 W/m2
22:20 -1.6 °C -3 °C 1002.9 hPa West 3.2 km/h 3.2 km/h 90% 0 mm 0 W/m2
22:25 -1.6 °C -2.8 °C 1002.9 hPa NW 3.2 km/h 3.2 km/h 91% 0 mm 0 W/m2
22:32 -1.6 °C -3 °C 1002.6 hPa WSW 3.2 km/h 3.2 km/h 90% 0 mm 0 W/m2
22:38 -1.6 °C -2.9 °C 1002.9 hPa WSW 1.6 km/h 3.2 km/h 91% 0 mm 0 W/m2
22:44 -1.6 °C -2.9 °C 1002.9 hPa WSW 1.6 km/h 3.2 km/h 91% 0 mm 0 W/m2
22:50 -1.6 °C -2.9 °C 1002.9 hPa NW 3.2 km/h 3.2 km/h 91% 0 mm 0 W/m2
22:56 -1.6 °C -2.9 °C 1002.9 hPa NW 3.2 km/h 4.8 km/h 91% 0 mm 0 W/m2
23:02 -1.6 °C -3.1 °C 1002.9 hPa NW 1.6 km/h 4.8 km/h 90% 0 mm 0 W/m2
23:08 -1.7 °C -3.1 °C 1002.9 hPa NW 1.6 km/h 4.8 km/h 90% 0 mm 0 W/m2
23:14 -1.7 °C -3.1 °C 1002.9 hPa NW 1.6 km/h 1.6 km/h 90% 0 mm 0 W/m2
23:19 -1.7 °C -3.1 °C 1002.9 hPa NW 1.6 km/h 3.2 km/h 90% 0 mm 0 W/m2
23:26 -1.7 °C -3.1 °C 1002.9 hPa NW 1.6 km/h 3.2 km/h 90% 0 mm 0 W/m2
23:32 -1.7 °C -3.1 °C 1002.9 hPa NW 1.6 km/h 3.2 km/h 90% 0 mm 0 W/m2
23:38 -1.7 °C -3.1 °C 1002.9 hPa WNW 3.2 km/h 6.4 km/h 90% 0 mm 0 W/m2
23:44 -1.7 °C -3.1 °C 1002.9 hPa WNW 3.2 km/h 3.2 km/h 90% 0 mm 0 W/m2
23:50 -1.7 °C -3.1 °C 1002.9 hPa WNW 1.6 km/h 1.6 km/h 90% 0 mm 0 W/m2
23:56 -1.7 °C -3.2 °C 1002.9 hPa NW 3.2 km/h 4.8 km/h 90% 0 mm 0 W/m2
Country Meadow, Clay, NY, USA
Compliments of Weather Underground - 2 mb